sensor_id;sensor_type;location;lat;lon;timestamp;temperature;humidity
23540;DHT22;11947;50.810;4.394;2023-01-16T00:02:12;5.00;99.90
23540;DHT22;11947;50.810;4.394;2023-01-16T00:04:37;5.20;99.90
23540;DHT22;11947;50.810;4.394;2023-01-16T00:07:03;5.20;99.90
23540;DHT22;11947;50.810;4.394;2023-01-16T00:09:29;5.10;99.90
23540;DHT22;11947;50.810;4.394;2023-01-16T00:11:54;5.10;99.90
23540;DHT22;11947;50.810;4.394;2023-01-16T00:14:20;5.00;99.90
23540;DHT22;11947;50.810;4.394;2023-01-16T00:16:45;5.00;99.90
23540;DHT22;11947;50.810;4.394;2023-01-16T00:19:11;5.00;99.90
23540;DHT22;11947;50.810;4.394;2023-01-16T00:21:37;4.90;99.90
23540;DHT22;11947;50.810;4.394;2023-01-16T00:24:03;4.90;99.90
23540;DHT22;11947;50.810;4.394;2023-01-16T00:26:30;4.90;99.90
23540;DHT22;11947;50.810;4.394;2023-01-16T00:28:55;5.10;99.90
23540;DHT22;11947;50.810;4.394;2023-01-16T00:31:21;5.00;99.90
23540;DHT22;11947;50.810;4.394;2023-01-16T00:33:53;5.00;99.90
23540;DHT22;11947;50.810;4.394;2023-01-16T00:36:19;4.90;99.90
23540;DHT22;11947;50.810;4.394;2023-01-16T00:38:44;4.90;99.90
23540;DHT22;11947;50.810;4.394;2023-01-16T00:41:10;5.00;99.90
23540;DHT22;11947;50.810;4.394;2023-01-16T00:43:35;4.80;99.90
23540;DHT22;11947;50.810;4.394;2023-01-16T00:46:01;4.80;99.90
23540;DHT22;11947;50.810;4.394;2023-01-16T00:48:27;4.70;99.90
23540;DHT22;11947;50.810;4.394;2023-01-16T00:50:52;4.70;99.90
23540;DHT22;11947;50.810;4.394;2023-01-16T00:53:18;4.70;99.90
23540;DHT22;11947;50.810;4.394;2023-01-16T00:55:44;4.90;99.90
23540;DHT22;11947;50.810;4.394;2023-01-16T00:58:10;4.90;99.90
23540;DHT22;11947;50.810;4.394;2023-01-16T01:00:36;4.90;99.90
23540;DHT22;11947;50.810;4.394;2023-01-16T01:03:03;4.80;99.90
23540;DHT22;11947;50.810;4.394;2023-01-16T01:05:28;4.80;99.90
23540;DHT22;11947;50.810;4.394;2023-01-16T01:07:54;4.80;99.90
23540;DHT22;11947;50.810;4.394;2023-01-16T01:10:20;4.80;99.90
23540;DHT22;11947;50.810;4.394;2023-01-16T01:12:45;4.90;99.90
23540;DHT22;11947;50.810;4.394;2023-01-16T01:15:14;4.90;99.90
23540;DHT22;11947;50.810;4.394;2023-01-16T01:17:39;5.00;99.90
23540;DHT22;11947;50.810;4.394;2023-01-16T01:20:05;4.90;99.90
23540;DHT22;11947;50.810;4.394;2023-01-16T01:22:31;4.90;99.90
23540;DHT22;11947;50.810;4.394;2023-01-16T01:24:57;4.90;99.90
23540;DHT22;11947;50.810;4.394;2023-01-16T01:27:22;5.00;99.90
23540;DHT22;11947;50.810;4.394;2023-01-16T01:29:48;5.00;99.90
23540;DHT22;11947;50.810;4.394;2023-01-16T01:32:13;5.00;99.90
23540;DHT22;11947;50.810;4.394;2023-01-16T01:34:39;4.90;99.90
23540;DHT22;11947;50.810;4.394;2023-01-16T01:37:06;4.80;99.90
23540;DHT22;11947;50.810;4.394;2023-01-16T01:39:32;4.80;99.90
23540;DHT22;11947;50.810;4.394;2023-01-16T01:41:58;4.80;99.90
23540;DHT22;11947;50.810;4.394;2023-01-16T01:47:37;5.00;99.90
23540;DHT22;11947;50.810;4.394;2023-01-16T01:50:15;5.10;99.90
23540;DHT22;11947;50.810;4.394;2023-01-16T01:52:42;5.00;99.90
23540;DHT22;11947;50.810;4.394;2023-01-16T01:55:10;5.10;99.90
23540;DHT22;11947;50.810;4.394;2023-01-16T01:57:40;5.30;99.90
23540;DHT22;11947;50.810;4.394;2023-01-16T02:00:09;5.40;99.90
23540;DHT22;11947;50.810;4.394;2023-01-16T02:02:41;5.40;99.90
23540;DHT22;11947;50.810;4.394;2023-01-16T02:05:09;5.30;99.90
23540;DHT22;11947;50.810;4.394;2023-01-16T02:07:36;5.30;99.90
23540;DHT22;11947;50.810;4.394;2023-01-16T02:13:17;5.40;99.90
23540;DHT22;11947;50.810;4.394;2023-01-16T02:15:42;5.40;99.90
23540;DHT22;11947;50.810;4.394;2023-01-16T02:18:27;5.50;99.90
23540;DHT22;11947;50.810;4.394;2023-01-16T02:21:30;5.50;99.90
23540;DHT22;11947;50.810;4.394;2023-01-16T02:29:52;5.60;99.90
23540;DHT22;11947;50.810;4.394;2023-01-16T02:32:50;5.60;99.90
23540;DHT22;11947;50.810;4.394;2023-01-16T02:38:17;5.60;99.90
23540;DHT22;11947;50.810;4.394;2023-01-16T02:44:06;5.70;99.90
23540;DHT22;11947;50.810;4.394;2023-01-16T02:46:35;5.80;99.90
23540;DHT22;11947;50.810;4.394;2023-01-16T02:49:14;5.70;99.90
23540;DHT22;11947;50.810;4.394;2023-01-16T02:51:56;5.90;99.90
23540;DHT22;11947;50.810;4.394;2023-01-16T02:57:12;5.80;99.90
23540;DHT22;11947;50.810;4.394;2023-01-16T02:59:40;5.80;99.90
23540;DHT22;11947;50.810;4.394;2023-01-16T03:02:09;5.80;99.90
23540;DHT22;11947;50.810;4.394;2023-01-16T03:10:21;5.90;99.90
23540;DHT22;11947;50.810;4.394;2023-01-16T03:18:51;5.90;99.90
23540;DHT22;11947;50.810;4.394;2023-01-16T03:21:32;5.90;99.90
23540;DHT22;11947;50.810;4.394;2023-01-16T03:26:59;6.00;99.90
23540;DHT22;11947;50.810;4.394;2023-01-16T03:29:43;5.90;99.90
23540;DHT22;11947;50.810;4.394;2023-01-16T03:32:35;5.90;99.90
23540;DHT22;11947;50.810;4.394;2023-01-16T03:37:39;5.90;99.90
23540;DHT22;11947;50.810;4.394;2023-01-16T03:40:09;6.10;99.90
23540;DHT22;11947;50.810;4.394;2023-01-16T03:42:44;5.90;99.90
23540;DHT22;11947;50.810;4.394;2023-01-16T03:48:05;5.90;99.90
23540;DHT22;11947;50.810;4.394;2023-01-16T03:50:34;5.90;99.90
23540;DHT22;11947;50.810;4.394;2023-01-16T03:53:06;5.90;99.90
23540;DHT22;11947;50.810;4.394;2023-01-16T03:55:44;5.90;99.90
23540;DHT22;11947;50.810;4.394;2023-01-16T03:58:18;6.00;99.90
23540;DHT22;11947;50.810;4.394;2023-01-16T04:00:51;5.90;99.90
23540;DHT22;11947;50.810;4.394;2023-01-16T04:03:40;5.90;99.90
23540;DHT22;11947;50.810;4.394;2023-01-16T04:06:18;5.90;99.90
23540;DHT22;11947;50.810;4.394;2023-01-16T04:08:46;5.90;99.90
23540;DHT22;11947;50.810;4.394;2023-01-16T04:11:13;5.90;99.90
23540;DHT22;11947;50.810;4.394;2023-01-16T04:13:44;5.80;99.90
23540;DHT22;11947;50.810;4.394;2023-01-16T04:16:13;5.80;99.90
23540;DHT22;11947;50.810;4.394;2023-01-16T04:18:40;5.80;99.90
23540;DHT22;11947;50.810;4.394;2023-01-16T04:21:07;6.00;99.90
23540;DHT22;11947;50.810;4.394;2023-01-16T04:23:34;5.80;99.90
23540;DHT22;11947;50.810;4.394;2023-01-16T04:26:00;5.80;99.90
23540;DHT22;11947;50.810;4.394;2023-01-16T04:28:26;6.00;99.90
23540;DHT22;11947;50.810;4.394;2023-01-16T04:30:51;5.80;99.90
23540;DHT22;11947;50.810;4.394;2023-01-16T04:33:17;5.70;99.90
23540;DHT22;11947;50.810;4.394;2023-01-16T04:35:42;5.60;99.90
23540;DHT22;11947;50.810;4.394;2023-01-16T04:38:08;5.60;99.90
23540;DHT22;11947;50.810;4.394;2023-01-16T04:40:34;5.60;99.90
23540;DHT22;11947;50.810;4.394;2023-01-16T04:42:59;5.60;99.90
23540;DHT22;11947;50.810;4.394;2023-01-16T04:45:25;5.60;99.90
23540;DHT22;11947;50.810;4.394;2023-01-16T04:47:52;5.60;99.90
23540;DHT22;11947;50.810;4.394;2023-01-16T04:50:18;5.60;99.90
23540;DHT22;11947;50.810;4.394;2023-01-16T04:52:44;5.70;99.90
23540;DHT22;11947;50.810;4.394;2023-01-16T04:55:10;5.50;99.90
23540;DHT22;11947;50.810;4.394;2023-01-16T04:57:36;5.50;99.90
23540;DHT22;11947;50.810;4.394;2023-01-16T05:00:04;5.50;99.90
23540;DHT22;11947;50.810;4.394;2023-01-16T05:02:30;5.50;99.90
23540;DHT22;11947;50.810;4.394;2023-01-16T05:04:55;5.50;99.90
23540;DHT22;11947;50.810;4.394;2023-01-16T05:07:21;5.50;99.90
23540;DHT22;11947;50.810;4.394;2023-01-16T05:09:46;5.40;99.90
23540;DHT22;11947;50.810;4.394;2023-01-16T05:12:12;5.40;99.90
23540;DHT22;11947;50.810;4.394;2023-01-16T05:14:38;5.40;99.90
23540;DHT22;11947;50.810;4.394;2023-01-16T05:17:04;5.30;99.90
23540;DHT22;11947;50.810;4.394;2023-01-16T05:19:30;5.30;99.90
23540;DHT22;11947;50.810;4.394;2023-01-16T05:21:59;5.30;99.90
23540;DHT22;11947;50.810;4.394;2023-01-16T05:24:25;5.30;99.90
23540;DHT22;11947;50.810;4.394;2023-01-16T05:26:50;5.40;99.90
23540;DHT22;11947;50.810;4.394;2023-01-16T05:29:16;5.30;99.90
23540;DHT22;11947;50.810;4.394;2023-01-16T05:31:42;5.40;99.90
23540;DHT22;11947;50.810;4.394;2023-01-16T05:34:08;5.30;99.90
23540;DHT22;11947;50.810;4.394;2023-01-16T05:36:34;5.30;99.90
23540;DHT22;11947;50.810;4.394;2023-01-16T05:39:00;5.20;99.90
23540;DHT22;11947;50.810;4.394;2023-01-16T05:41:25;5.30;99.90
23540;DHT22;11947;50.810;4.394;2023-01-16T05:43:51;5.10;99.90
23540;DHT22;11947;50.810;4.394;2023-01-16T05:46:16;5.00;99.90
23540;DHT22;11947;50.810;4.394;2023-01-16T05:48:43;5.00;99.90
23540;DHT22;11947;50.810;4.394;2023-01-16T05:51:08;5.20;99.90
23540;DHT22;11947;50.810;4.394;2023-01-16T05:53:34;5.00;99.90
23540;DHT22;11947;50.810;4.394;2023-01-16T05:56:09;5.00;99.90
23540;DHT22;11947;50.810;4.394;2023-01-16T05:58:36;4.80;99.90
23540;DHT22;11947;50.810;4.394;2023-01-16T06:01:02;4.80;99.90
23540;DHT22;11947;50.810;4.394;2023-01-16T06:03:28;4.80;99.90
23540;DHT22;11947;50.810;4.394;2023-01-16T06:05:53;4.80;99.90
23540;DHT22;11947;50.810;4.394;2023-01-16T06:08:19;4.70;99.90
23540;DHT22;11947;50.810;4.394;2023-01-16T06:10:45;4.70;99.90
23540;DHT22;11947;50.810;4.394;2023-01-16T06:13:11;4.70;99.90
23540;DHT22;11947;50.810;4.394;2023-01-16T06:15:36;4.70;99.90
23540;DHT22;11947;50.810;4.394;2023-01-16T06:18:02;4.70;99.90
23540;DHT22;11947;50.810;4.394;2023-01-16T06:20:28;4.70;99.90
23540;DHT22;11947;50.810;4.394;2023-01-16T06:22:53;4.80;99.90
23540;DHT22;11947;50.810;4.394;2023-01-16T06:25:19;4.70;99.90
23540;DHT22;11947;50.810;4.394;2023-01-16T06:27:49;4.70;99.90
23540;DHT22;11947;50.810;4.394;2023-01-16T06:30:15;4.80;99.90
23540;DHT22;11947;50.810;4.394;2023-01-16T06:32:41;4.70;99.90
23540;DHT22;11947;50.810;4.394;2023-01-16T06:35:07;4.70;99.90
23540;DHT22;11947;50.810;4.394;2023-01-16T06:37:32;4.70;99.90
23540;DHT22;11947;50.810;4.394;2023-01-16T06:39:58;4.70;99.90
23540;DHT22;11947;50.810;4.394;2023-01-16T06:42:25;4.70;99.90
23540;DHT22;11947;50.810;4.394;2023-01-16T06:44:51;4.70;99.90
23540;DHT22;11947;50.810;4.394;2023-01-16T06:47:16;4.80;99.90
23540;DHT22;11947;50.810;4.394;2023-01-16T06:49:42;4.70;99.90
23540;DHT22;11947;50.810;4.394;2023-01-16T06:52:07;4.80;99.90
23540;DHT22;11947;50.810;4.394;2023-01-16T06:54:33;4.90;99.90
23540;DHT22;11947;50.810;4.394;2023-01-16T06:56:58;4.60;99.90
23540;DHT22;11947;50.810;4.394;2023-01-16T06:59:24;4.50;99.90
23540;DHT22;11947;50.810;4.394;2023-01-16T07:01:49;4.50;99.90
23540;DHT22;11947;50.810;4.394;2023-01-16T07:04:15;4.50;99.90
23540;DHT22;11947;50.810;4.394;2023-01-16T07:06:41;4.50;99.90
23540;DHT22;11947;50.810;4.394;2023-01-16T07:09:09;4.60;99.90
23540;DHT22;11947;50.810;4.394;2023-01-16T07:11:35;4.50;99.90
23540;DHT22;11947;50.810;4.394;2023-01-16T07:14:00;4.70;99.90
23540;DHT22;11947;50.810;4.394;2023-01-16T07:16:44;4.60;99.90
23540;DHT22;11947;50.810;4.394;2023-01-16T07:19:28;4.60;99.90
23540;DHT22;11947;50.810;4.394;2023-01-16T07:22:13;4.60;99.90
23540;DHT22;11947;50.810;4.394;2023-01-16T07:24:59;4.60;99.90
23540;DHT22;11947;50.810;4.394;2023-01-16T07:27:25;4.50;99.90
23540;DHT22;11947;50.810;4.394;2023-01-16T07:29:52;4.50;99.90
23540;DHT22;11947;50.810;4.394;2023-01-16T07:32:18;4.50;99.90
23540;DHT22;11947;50.810;4.394;2023-01-16T07:34:44;4.50;99.90
23540;DHT22;11947;50.810;4.394;2023-01-16T07:37:09;4.50;99.90
23540;DHT22;11947;50.810;4.394;2023-01-16T07:39:36;4.60;99.90
23540;DHT22;11947;50.810;4.394;2023-01-16T07:42:06;4.50;99.90
23540;DHT22;11947;50.810;4.394;2023-01-16T07:44:33;4.50;99.90
23540;DHT22;11947;50.810;4.394;2023-01-16T07:46:59;4.70;99.90
23540;DHT22;11947;50.810;4.394;2023-01-16T07:49:24;4.50;99.90
23540;DHT22;11947;50.810;4.394;2023-01-16T07:51:50;4.50;99.90
23540;DHT22;11947;50.810;4.394;2023-01-16T07:54:15;4.60;99.90
23540;DHT22;11947;50.810;4.394;2023-01-16T07:56:41;4.60;99.90
23540;DHT22;11947;50.810;4.394;2023-01-16T07:59:07;4.50;99.90
23540;DHT22;11947;50.810;4.394;2023-01-16T08:01:33;4.50;99.90
23540;DHT22;11947;50.810;4.394;2023-01-16T08:03:59;4.60;99.90
23540;DHT22;11947;50.810;4.394;2023-01-16T08:06:24;4.60;99.90
23540;DHT22;11947;50.810;4.394;2023-01-16T08:08:50;4.70;99.90
23540;DHT22;11947;50.810;4.394;2023-01-16T08:11:15;4.80;99.90
23540;DHT22;11947;50.810;4.394;2023-01-16T08:14:00;4.80;99.90
23540;DHT22;11947;50.810;4.394;2023-01-16T08:16:26;4.70;99.90
23540;DHT22;11947;50.810;4.394;2023-01-16T08:18:52;4.60;99.90
23540;DHT22;11947;50.810;4.394;2023-01-16T08:21:18;4.60;99.90
23540;DHT22;11947;50.810;4.394;2023-01-16T08:23:43;4.60;99.90
23540;DHT22;11947;50.810;4.394;2023-01-16T08:26:10;4.80;99.90
23540;DHT22;11947;50.810;4.394;2023-01-16T08:28:36;4.80;99.90
23540;DHT22;11947;50.810;4.394;2023-01-16T08:31:04;4.90;99.90
23540;DHT22;11947;50.810;4.394;2023-01-16T08:33:35;4.90;99.90
23540;DHT22;11947;50.810;4.394;2023-01-16T08:36:03;4.70;99.90
23540;DHT22;11947;50.810;4.394;2023-01-16T08:38:28;4.80;99.90
23540;DHT22;11947;50.810;4.394;2023-01-16T08:40:54;4.80;99.90
23540;DHT22;11947;50.810;4.394;2023-01-16T08:43:20;5.00;99.90
23540;DHT22;11947;50.810;4.394;2023-01-16T08:46:04;4.90;99.90
23540;DHT22;11947;50.810;4.394;2023-01-16T08:48:55;5.00;99.90
23540;DHT22;11947;50.810;4.394;2023-01-16T08:51:39;5.10;99.90
23540;DHT22;11947;50.810;4.394;2023-01-16T08:54:04;5.20;99.90
23540;DHT22;11947;50.810;4.394;2023-01-16T08:56:30;5.10;99.90
23540;DHT22;11947;50.810;4.394;2023-01-16T08:58:56;5.10;99.90
23540;DHT22;11947;50.810;4.394;2023-01-16T09:01:22;5.20;99.90
23540;DHT22;11947;50.810;4.394;2023-01-16T09:03:48;5.20;99.90
23540;DHT22;11947;50.810;4.394;2023-01-16T09:06:14;5.30;99.90
23540;DHT22;11947;50.810;4.394;2023-01-16T09:08:39;5.30;99.90
23540;DHT22;11947;50.810;4.394;2023-01-16T09:11:05;5.20;99.90
23540;DHT22;11947;50.810;4.394;2023-01-16T09:13:49;5.40;99.90
23540;DHT22;11947;50.810;4.394;2023-01-16T09:16:23;5.30;99.90
23540;DHT22;11947;50.810;4.394;2023-01-16T09:18:49;5.50;99.90
23540;DHT22;11947;50.810;4.394;2023-01-16T09:21:15;5.30;99.90
23540;DHT22;11947;50.810;4.394;2023-01-16T09:23:41;5.50;99.90
23540;DHT22;11947;50.810;4.394;2023-01-16T09:26:07;5.30;99.90
23540;DHT22;11947;50.810;4.394;2023-01-16T09:28:33;5.40;99.90
23540;DHT22;11947;50.810;4.394;2023-01-16T09:30:58;5.50;99.90
23540;DHT22;11947;50.810;4.394;2023-01-16T09:33:24;5.40;99.90
23540;DHT22;11947;50.810;4.394;2023-01-16T09:35:50;5.50;99.90
23540;DHT22;11947;50.810;4.394;2023-01-16T09:38:15;5.60;99.90
23540;DHT22;11947;50.810;4.394;2023-01-16T09:40:51;5.60;99.90
23540;DHT22;11947;50.810;4.394;2023-01-16T09:43:35;5.90;99.90
23540;DHT22;11947;50.810;4.394;2023-01-16T09:46:19;6.00;99.90
23540;DHT22;11947;50.810;4.394;2023-01-16T09:51:21;5.90;99.90
23540;DHT22;11947;50.810;4.394;2023-01-16T09:53:57;5.90;99.90
23540;DHT22;11947;50.810;4.394;2023-01-16T09:56:46;5.90;99.90
23540;DHT22;11947;50.810;4.394;2023-01-16T09:59:41;6.00;99.90
23540;DHT22;11947;50.810;4.394;2023-01-16T10:04:48;6.10;99.90
23540;DHT22;11947;50.810;4.394;2023-01-16T10:10:36;6.10;99.90
23540;DHT22;11947;50.810;4.394;2023-01-16T10:15:58;6.10;99.90
23540;DHT22;11947;50.810;4.394;2023-01-16T10:18:48;6.10;99.90
23540;DHT22;11947;50.810;4.394;2023-01-16T10:24:53;6.00;99.90
23540;DHT22;11947;50.810;4.394;2023-01-16T10:30:21;6.20;99.90
23540;DHT22;11947;50.810;4.394;2023-01-16T10:35:45;6.10;99.90
23540;DHT22;11947;50.810;4.394;2023-01-16T10:38:27;6.00;99.90
23540;DHT22;11947;50.810;4.394;2023-01-16T10:41:19;6.00;99.90
23540;DHT22;11947;50.810;4.394;2023-01-16T10:44:18;6.10;99.90
23540;DHT22;11947;50.810;4.394;2023-01-16T10:47:10;6.00;99.90
23540;DHT22;11947;50.810;4.394;2023-01-16T10:49:54;6.10;99.90
23540;DHT22;11947;50.810;4.394;2023-01-16T10:52:20;6.00;99.90
23540;DHT22;11947;50.810;4.394;2023-01-16T10:54:47;6.10;99.90
23540;DHT22;11947;50.810;4.394;2023-01-16T10:57:17;6.00;99.90
23540;DHT22;11947;50.810;4.394;2023-01-16T10:59:44;6.10;99.90
23540;DHT22;11947;50.810;4.394;2023-01-16T11:02:33;6.20;99.90
23540;DHT22;11947;50.810;4.394;2023-01-16T11:04:59;6.20;99.90
23540;DHT22;11947;50.810;4.394;2023-01-16T11:07:28;6.30;99.90
23540;DHT22;11947;50.810;4.394;2023-01-16T11:09:54;6.40;99.90
23540;DHT22;11947;50.810;4.394;2023-01-16T11:12:27;6.50;99.90
23540;DHT22;11947;50.810;4.394;2023-01-16T11:15:16;6.60;99.90
23540;DHT22;11947;50.810;4.394;2023-01-16T11:18:00;6.80;99.90
23540;DHT22;11947;50.810;4.394;2023-01-16T11:20:45;6.80;99.90
23540;DHT22;11947;50.810;4.394;2023-01-16T11:23:25;6.70;99.90
23540;DHT22;11947;50.810;4.394;2023-01-16T11:25:53;6.60;99.90
23540;DHT22;11947;50.810;4.394;2023-01-16T11:28:25;6.50;99.90
23540;DHT22;11947;50.810;4.394;2023-01-16T11:30:55;6.50;99.90
23540;DHT22;11947;50.810;4.394;2023-01-16T11:33:25;6.70;99.90
23540;DHT22;11947;50.810;4.394;2023-01-16T11:35:56;6.80;99.90
23540;DHT22;11947;50.810;4.394;2023-01-16T11:38:23;6.80;99.90
23540;DHT22;11947;50.810;4.394;2023-01-16T11:40:51;7.00;99.90
23540;DHT22;11947;50.810;4.394;2023-01-16T11:43:22;6.90;99.90
23540;DHT22;11947;50.810;4.394;2023-01-16T11:48:53;7.00;99.90
23540;DHT22;11947;50.810;4.394;2023-01-16T11:51:21;6.90;99.90
23540;DHT22;11947;50.810;4.394;2023-01-16T11:53:49;6.90;99.90
23540;DHT22;11947;50.810;4.394;2023-01-16T11:56:19;6.90;99.90
23540;DHT22;11947;50.810;4.394;2023-01-16T12:04:29;6.90;99.90
23540;DHT22;11947;50.810;4.394;2023-01-16T12:07:15;6.80;99.90
23540;DHT22;11947;50.810;4.394;2023-01-16T12:09:57;6.90;99.90
23540;DHT22;11947;50.810;4.394;2023-01-16T12:12:33;6.80;99.90
23540;DHT22;11947;50.810;4.394;2023-01-16T12:15:31;7.00;99.90
23540;DHT22;11947;50.810;4.394;2023-01-16T12:18:31;6.90;99.90
23540;DHT22;11947;50.810;4.394;2023-01-16T12:21:01;6.60;99.90
23540;DHT22;11947;50.810;4.394;2023-01-16T12:31:48;6.80;99.90
23540;DHT22;11947;50.810;4.394;2023-01-16T12:37:28;7.10;99.90
23540;DHT22;11947;50.810;4.394;2023-01-16T12:45:53;7.20;99.90
23540;DHT22;11947;50.810;4.394;2023-01-16T12:54:28;7.00;99.90
23540;DHT22;11947;50.810;4.394;2023-01-16T13:00:13;6.90;99.90
23540;DHT22;11947;50.810;4.394;2023-01-16T13:02:45;7.00;99.90
23540;DHT22;11947;50.810;4.394;2023-01-16T13:05:26;7.00;99.90
23540;DHT22;11947;50.810;4.394;2023-01-16T13:10:36;6.90;99.90
23540;DHT22;11947;50.810;4.394;2023-01-16T13:13:26;6.90;99.90
23540;DHT22;11947;50.810;4.394;2023-01-16T13:16:03;6.90;99.90
23540;DHT22;11947;50.810;4.394;2023-01-16T13:19:04;7.10;99.90
23540;DHT22;11947;50.810;4.394;2023-01-16T13:21:33;7.30;99.90
23540;DHT22;11947;50.810;4.394;2023-01-16T13:24:14;7.50;99.90
23540;DHT22;11947;50.810;4.394;2023-01-16T13:26:45;7.80;99.90
23540;DHT22;11947;50.810;4.394;2023-01-16T13:29:38;7.80;99.90
23540;DHT22;11947;50.810;4.394;2023-01-16T13:32:22;7.70;99.90
23540;DHT22;11947;50.810;4.394;2023-01-16T13:34:53;8.00;99.90
23540;DHT22;11947;50.810;4.394;2023-01-16T13:38:05;8.30;99.90
23540;DHT22;11947;50.810;4.394;2023-01-16T13:43:29;8.00;99.90
23540;DHT22;11947;50.810;4.394;2023-01-16T13:46:14;7.80;99.90
23540;DHT22;11947;50.810;4.394;2023-01-16T13:48:40;7.80;99.90
23540;DHT22;11947;50.810;4.394;2023-01-16T13:51:12;7.80;99.90
23540;DHT22;11947;50.810;4.394;2023-01-16T13:53:40;7.80;99.90
23540;DHT22;11947;50.810;4.394;2023-01-16T13:58:47;7.90;99.90
23540;DHT22;11947;50.810;4.394;2023-01-16T14:06:48;7.80;99.90
23540;DHT22;11947;50.810;4.394;2023-01-16T14:11:59;7.70;99.90
23540;DHT22;11947;50.810;4.394;2023-01-16T14:17:14;7.40;99.90
23540;DHT22;11947;50.810;4.394;2023-01-16T14:19:59;7.40;99.90
23540;DHT22;11947;50.810;4.394;2023-01-16T14:22:40;7.50;99.90
23540;DHT22;11947;50.810;4.394;2023-01-16T14:25:17;7.20;99.90
23540;DHT22;11947;50.810;4.394;2023-01-16T14:27:44;7.10;99.90
23540;DHT22;11947;50.810;4.394;2023-01-16T14:30:23;7.10;99.90
23540;DHT22;11947;50.810;4.394;2023-01-16T14:32:55;7.00;99.90
23540;DHT22;11947;50.810;4.394;2023-01-16T14:35:28;7.10;99.90
23540;DHT22;11947;50.810;4.394;2023-01-16T14:40:29;6.80;99.90
23540;DHT22;11947;50.810;4.394;2023-01-16T14:43:23;6.80;99.90
23540;DHT22;11947;50.810;4.394;2023-01-16T15:01:05;6.40;99.90
23540;DHT22;11947;50.810;4.394;2023-01-16T15:03:51;6.40;99.90
23540;DHT22;11947;50.810;4.394;2023-01-16T15:06:18;6.40;99.90
23540;DHT22;11947;50.810;4.394;2023-01-16T15:08:45;6.40;99.90
23540;DHT22;11947;50.810;4.394;2023-01-16T15:11:26;6.40;99.90
23540;DHT22;11947;50.810;4.394;2023-01-16T15:14:18;6.40;99.90
23540;DHT22;11947;50.810;4.394;2023-01-16T15:22:53;6.40;99.90
23540;DHT22;11947;50.810;4.394;2023-01-16T15:25:41;6.30;99.90
23540;DHT22;11947;50.810;4.394;2023-01-16T15:28:38;6.30;99.90
23540;DHT22;11947;50.810;4.394;2023-01-16T15:31:13;6.30;99.90
23540;DHT22;11947;50.810;4.394;2023-01-16T15:33:39;6.30;99.90
23540;DHT22;11947;50.810;4.394;2023-01-16T15:39:23;6.00;99.90
23540;DHT22;11947;50.810;4.394;2023-01-16T15:42:27;5.90;99.90
23540;DHT22;11947;50.810;4.394;2023-01-16T15:45:26;5.80;99.90
23540;DHT22;11947;50.810;4.394;2023-01-16T15:51:07;5.70;99.90
23540;DHT22;11947;50.810;4.394;2023-01-16T15:53:42;5.70;99.90
23540;DHT22;11947;50.810;4.394;2023-01-16T15:58:50;5.40;99.90
23540;DHT22;11947;50.810;4.394;2023-01-16T16:01:27;5.30;99.90
23540;DHT22;11947;50.810;4.394;2023-01-16T16:03:53;5.50;99.90
23540;DHT22;11947;50.810;4.394;2023-01-16T16:06:39;5.30;99.90
23540;DHT22;11947;50.810;4.394;2023-01-16T16:09:19;5.40;99.90
23540;DHT22;11947;50.810;4.394;2023-01-16T16:11:56;5.30;99.90
23540;DHT22;11947;50.810;4.394;2023-01-16T16:14:31;5.30;99.90
23540;DHT22;11947;50.810;4.394;2023-01-16T16:17:30;5.50;99.90
23540;DHT22;11947;50.810;4.394;2023-01-16T16:25:58;5.30;99.90
23540;DHT22;11947;50.810;4.394;2023-01-16T16:28:33;5.30;99.90
23540;DHT22;11947;50.810;4.394;2023-01-16T16:33:44;5.10;99.90
23540;DHT22;11947;50.810;4.394;2023-01-16T16:36:17;5.20;99.90
23540;DHT22;11947;50.810;4.394;2023-01-16T16:38:49;5.20;99.90
23540;DHT22;11947;50.810;4.394;2023-01-16T16:43:49;5.50;99.90
23540;DHT22;11947;50.810;4.394;2023-01-16T16:48:52;5.40;99.90
23540;DHT22;11947;50.810;4.394;2023-01-16T16:51:29;5.50;99.90
23540;DHT22;11947;50.810;4.394;2023-01-16T16:54:05;5.40;99.90
23540;DHT22;11947;50.810;4.394;2023-01-16T16:56:35;5.40;99.90
23540;DHT22;11947;50.810;4.394;2023-01-16T16:59:01;5.70;99.90
23540;DHT22;11947;50.810;4.394;2023-01-16T17:01:29;5.50;99.90
23540;DHT22;11947;50.810;4.394;2023-01-16T17:03:57;5.50;99.90
23540;DHT22;11947;50.810;4.394;2023-01-16T17:06:31;5.50;99.90
23540;DHT22;11947;50.810;4.394;2023-01-16T17:08:58;5.60;99.90
23540;DHT22;11947;50.810;4.394;2023-01-16T17:11:25;5.60;99.90
23540;DHT22;11947;50.810;4.394;2023-01-16T17:13:51;5.50;99.90
23540;DHT22;11947;50.810;4.394;2023-01-16T17:16:19;5.40;99.90
23540;DHT22;11947;50.810;4.394;2023-01-16T17:18:56;5.60;99.90
23540;DHT22;11947;50.810;4.394;2023-01-16T17:21:22;5.60;99.90
23540;DHT22;11947;50.810;4.394;2023-01-16T17:23:48;5.40;99.90
23540;DHT22;11947;50.810;4.394;2023-01-16T17:26:14;5.40;99.90
23540;DHT22;11947;50.810;4.394;2023-01-16T17:28:44;5.40;99.90
23540;DHT22;11947;50.810;4.394;2023-01-16T17:31:17;5.40;99.90
23540;DHT22;11947;50.810;4.394;2023-01-16T17:33:44;5.50;99.90
23540;DHT22;11947;50.810;4.394;2023-01-16T17:36:17;5.50;99.90
23540;DHT22;11947;50.810;4.394;2023-01-16T17:38:44;5.60;99.90
23540;DHT22;11947;50.810;4.394;2023-01-16T17:41:19;5.50;99.90
23540;DHT22;11947;50.810;4.394;2023-01-16T17:43:49;5.40;99.90
23540;DHT22;11947;50.810;4.394;2023-01-16T17:46:44;5.40;99.90
23540;DHT22;11947;50.810;4.394;2023-01-16T17:49:10;5.40;99.90
23540;DHT22;11947;50.810;4.394;2023-01-16T17:51:36;5.40;99.90
23540;DHT22;11947;50.810;4.394;2023-01-16T17:54:01;5.10;99.90
23540;DHT22;11947;50.810;4.394;2023-01-16T17:56:27;5.10;99.90
23540;DHT22;11947;50.810;4.394;2023-01-16T17:58:52;4.90;99.90
23540;DHT22;11947;50.810;4.394;2023-01-16T18:01:23;4.80;99.90
23540;DHT22;11947;50.810;4.394;2023-01-16T18:03:58;4.80;99.90
23540;DHT22;11947;50.810;4.394;2023-01-16T18:06:27;4.50;99.90
23540;DHT22;11947;50.810;4.394;2023-01-16T18:08:54;4.40;99.90
23540;DHT22;11947;50.810;4.394;2023-01-16T18:11:44;4.30;99.90
23540;DHT22;11947;50.810;4.394;2023-01-16T18:14:29;4.20;99.90
23540;DHT22;11947;50.810;4.394;2023-01-16T18:17:15;4.00;99.90
23540;DHT22;11947;50.810;4.394;2023-01-16T18:19:56;4.00;99.90
23540;DHT22;11947;50.810;4.394;2023-01-16T18:22:24;4.10;99.90
23540;DHT22;11947;50.810;4.394;2023-01-16T18:24:54;4.20;99.90
23540;DHT22;11947;50.810;4.394;2023-01-16T18:27:20;4.40;99.90
23540;DHT22;11947;50.810;4.394;2023-01-16T18:29:46;4.40;99.90
23540;DHT22;11947;50.810;4.394;2023-01-16T18:32:14;4.30;99.90
23540;DHT22;11947;50.810;4.394;2023-01-16T18:37:24;4.30;99.90
23540;DHT22;11947;50.810;4.394;2023-01-16T18:39:51;4.40;99.90
23540;DHT22;11947;50.810;4.394;2023-01-16T18:42:35;4.40;99.90
23540;DHT22;11947;50.810;4.394;2023-01-16T18:45:19;4.50;99.90
23540;DHT22;11947;50.810;4.394;2023-01-16T18:48:03;4.50;99.90
23540;DHT22;11947;50.810;4.394;2023-01-16T18:50:55;4.50;99.90
23540;DHT22;11947;50.810;4.394;2023-01-16T18:53:41;4.70;99.90
23540;DHT22;11947;50.810;4.394;2023-01-16T18:56:40;4.70;99.90
23540;DHT22;11947;50.810;4.394;2023-01-16T18:59:27;4.70;99.90